Aeroporto :
LOGIN :

Iscrizione | Disclaimer

   EN    FR    IT 

 










Sommario :    VFR   VFR Marginale   IFR   IFR Intensivo   IFR Molto Intensivo
Visibilità : 
Base nubi : 
>= 8 km
>= 3000ft
5 / 8 km
1000 / 3000 ft
1500m / 5 km
500 / 1000 ft
800 / 1500m
200 / 500 ft
< 800m
< 200 ft
Simboli :   Temporali  Nebbia  Neve Forte  Precipitazioni Forti  Vento > 20 kt
SIGMETs :   Varie  Temporali  Ghiacco  Turbolenza  Onda orograficha  Ceneri Vulcaniche






- Altitudine del aeroporto : 300 ft
- Codice IATA : MLA


LMML - Malta Luqa

ULTIMO METAR :
  • 271515Z 05006KT 020V080 6000 TSRA BKN015CB 18/15 Q1023 TEMPO 4000 TSRAGS BKN012CB

METARs OBSOLETI :
  • 271445Z 12010KT 6000 TSRA BKN015CB 19/16 Q1022 TEMPO 4000 TSRAGS BKN012CB
  • 271415Z 15009KT 9999 -TSRA SCT018CB SCT023TCU 20/16 Q1022 TEMPO 5000 TSRA BKN015CB
  • 271407Z 15009KT 9999 -TSRA FEW020CB SCT023TCU 20/16 Q1022 TEMPO 5000 TSRA BKN015CB
  • 271345Z 16008KT 130V190 9999 -SHRA BKN023TCU 21/14 Q1022 TEMPO 8000 SHRA
  • 271315Z 17006KT 120V250 9999 FEW028TCU 22/14 Q1022 NOSIG
  • 271245Z 16007KT 120V190 9999 FEW028 22/13 Q1023 NOSIG

TAF AMD TAF LMML
Valido dal 27 a 12 ore il 28 a 12 ore UTC


271400Z 2712/2812 VRB07KT 9999 FEW018
PROB40
TEMPO 2712/2720 5000 TSRAGS BKN015CB



MetMap, La meteo Aeronautica in un colpo d'occhio ! - Copyright ORBIFLY Dicembre 2007 - Disclaimer

ORBIFLY MET'MAP TEAM :

Programmazione e sviluppo : Alexandra Zaïnal
Concezione : Baudouin d'Aumeries
Aiuto per la programmazione : Marc-Olivier Méhu
Supporto tecnico e logistico : Manuel Goepfert
Aiuto per la traduzione : Arnaldo La Scala

Contatto : metmap@orbifly.com




FONTI E CREDITI :

   NOAA